sensor_id;sensor_type;location;lat;lon;timestamp;P1;durP1;ratioP1;P2;durP2;ratioP2
41705;SDS011;27385;51.096;17.190;2022-12-11T00:01:55;66.10;;;26.20;;
41705;SDS011;27385;51.096;17.190;2022-12-11T00:04:26;66.20;;;26.90;;
41705;SDS011;27385;51.096;17.190;2022-12-11T00:06:58;76.50;;;29.00;;
41705;SDS011;27385;51.096;17.190;2022-12-11T00:09:30;75.00;;;29.20;;
41705;SDS011;27385;51.096;17.190;2022-12-11T00:12:02;76.80;;;30.30;;
41705;SDS011;27385;51.096;17.190;2022-12-11T00:14:34;77.30;;;28.30;;
41705;SDS011;27385;51.096;17.190;2022-12-11T00:17:05;72.70;;;28.40;;
41705;SDS011;27385;51.096;17.190;2022-12-11T00:19:37;77.50;;;30.80;;
41705;SDS011;27385;51.096;17.190;2022-12-11T00:22:08;77.90;;;30.10;;
41705;SDS011;27385;51.096;17.190;2022-12-11T00:24:39;70.10;;;28.70;;
41705;SDS011;27385;51.096;17.190;2022-12-11T00:27:11;76.60;;;29.50;;
41705;SDS011;27385;51.096;17.190;2022-12-11T00:29:43;75.80;;;28.20;;
41705;SDS011;27385;51.096;17.190;2022-12-11T00:32:15;69.40;;;27.90;;
41705;SDS011;27385;51.096;17.190;2022-12-11T00:34:46;77.20;;;28.00;;
41705;SDS011;27385;51.096;17.190;2022-12-11T00:37:18;77.40;;;30.10;;
41705;SDS011;27385;51.096;17.190;2022-12-11T00:39:49;77.90;;;29.80;;
41705;SDS011;27385;51.096;17.190;2022-12-11T00:42:21;74.20;;;28.90;;
41705;SDS011;27385;51.096;17.190;2022-12-11T00:44:52;92.00;;;30.00;;
41705;SDS011;27385;51.096;17.190;2022-12-11T00:47:25;79.00;;;30.50;;
41705;SDS011;27385;51.096;17.190;2022-12-11T00:49:57;79.50;;;31.20;;
41705;SDS011;27385;51.096;17.190;2022-12-11T00:52:28;88.40;;;34.00;;
41705;SDS011;27385;51.096;17.190;2022-12-11T00:54:59;84.50;;;33.30;;
41705;SDS011;27385;51.096;17.190;2022-12-11T00:57:30;82.00;;;32.40;;
41705;SDS011;27385;51.096;17.190;2022-12-11T01:00:03;82.30;;;30.30;;
41705;SDS011;27385;51.096;17.190;2022-12-11T01:02:35;86.30;;;32.00;;
41705;SDS011;27385;51.096;17.190;2022-12-11T01:05:07;75.00;;;28.40;;
41705;SDS011;27385;51.096;17.190;2022-12-11T01:07:39;78.30;;;32.40;;
41705;SDS011;27385;51.096;17.190;2022-12-11T01:10:11;84.60;;;34.30;;
41705;SDS011;27385;51.096;17.190;2022-12-11T01:12:52;74.40;;;32.10;;
41705;SDS011;27385;51.096;17.190;2022-12-11T01:15:26;74.80;;;31.20;;
41705;SDS011;27385;51.096;17.190;2022-12-11T01:17:59;82.70;;;32.10;;
41705;SDS011;27385;51.096;17.190;2022-12-11T01:20:31;74.90;;;29.10;;
41705;SDS011;27385;51.096;17.190;2022-12-11T01:23:02;83.30;;;30.20;;
41705;SDS011;27385;51.096;17.190;2022-12-11T01:25:34;82.00;;;29.90;;
41705;SDS011;27385;51.096;17.190;2022-12-11T01:28:06;81.30;;;28.80;;
41705;SDS011;27385;51.096;17.190;2022-12-11T01:30:39;82.90;;;33.90;;
41705;SDS011;27385;51.096;17.190;2022-12-11T01:33:12;79.70;;;31.10;;
41705;SDS011;27385;51.096;17.190;2022-12-11T01:35:43;75.70;;;28.70;;
41705;SDS011;27385;51.096;17.190;2022-12-11T01:38:14;77.90;;;29.80;;
41705;SDS011;27385;51.096;17.190;2022-12-11T01:40:46;78.30;;;30.40;;
41705;SDS011;27385;51.096;17.190;2022-12-11T01:43:19;80.20;;;28.80;;
41705;SDS011;27385;51.096;17.190;2022-12-11T01:45:54;77.20;;;28.10;;
41705;SDS011;27385;51.096;17.190;2022-12-11T01:48:26;85.30;;;31.90;;
41705;SDS011;27385;51.096;17.190;2022-12-11T01:51:00;83.00;;;27.90;;
41705;SDS011;27385;51.096;17.190;2022-12-11T01:53:34;73.50;;;30.00;;
41705;SDS011;27385;51.096;17.190;2022-12-11T01:56:09;80.10;;;27.10;;
41705;SDS011;27385;51.096;17.190;2022-12-11T01:58:45;78.40;;;28.30;;
41705;SDS011;27385;51.096;17.190;2022-12-11T02:01:21;78.10;;;29.50;;
41705;SDS011;27385;51.096;17.190;2022-12-11T02:03:59;76.80;;;29.70;;
41705;SDS011;27385;51.096;17.190;2022-12-11T02:06:34;80.60;;;27.40;;
41705;SDS011;27385;51.096;17.190;2022-12-11T02:09:07;72.60;;;26.50;;
41705;SDS011;27385;51.096;17.190;2022-12-11T02:11:50;83.30;;;28.40;;
41705;SDS011;27385;51.096;17.190;2022-12-11T02:14:31;85.90;;;30.70;;
41705;SDS011;27385;51.096;17.190;2022-12-11T02:17:09;83.30;;;30.20;;
41705;SDS011;27385;51.096;17.190;2022-12-11T02:19:51;70.80;;;29.10;;
41705;SDS011;27385;51.096;17.190;2022-12-11T02:22:35;83.30;;;31.40;;
41705;SDS011;27385;51.096;17.190;2022-12-11T02:25:23;82.60;;;31.60;;
41705;SDS011;27385;51.096;17.190;2022-12-11T02:28:15;69.50;;;28.60;;
41705;SDS011;27385;51.096;17.190;2022-12-11T02:33:24;77.00;;;30.40;;
41705;SDS011;27385;51.096;17.190;2022-12-11T02:36:01;82.10;;;31.10;;
41705;SDS011;27385;51.096;17.190;2022-12-11T02:38:36;81.60;;;31.20;;
41705;SDS011;27385;51.096;17.190;2022-12-11T02:41:13;74.70;;;27.90;;
41705;SDS011;27385;51.096;17.190;2022-12-11T02:43:47;72.30;;;28.60;;
41705;SDS011;27385;51.096;17.190;2022-12-11T02:46:23;76.90;;;30.60;;
41705;SDS011;27385;51.096;17.190;2022-12-11T02:48:57;74.00;;;28.20;;
41705;SDS011;27385;51.096;17.190;2022-12-11T02:51:32;72.30;;;30.10;;
41705;SDS011;27385;51.096;17.190;2022-12-11T02:54:06;70.60;;;29.20;;
41705;SDS011;27385;51.096;17.190;2022-12-11T02:56:42;78.60;;;30.20;;
41705;SDS011;27385;51.096;17.190;2022-12-11T02:59:19;77.10;;;29.40;;
41705;SDS011;27385;51.096;17.190;2022-12-11T03:01:54;86.00;;;34.40;;
41705;SDS011;27385;51.096;17.190;2022-12-11T03:04:25;79.70;;;31.40;;
41705;SDS011;27385;51.096;17.190;2022-12-11T03:06:58;82.30;;;32.40;;
41705;SDS011;27385;51.096;17.190;2022-12-11T03:09:39;72.10;;;28.70;;
41705;SDS011;27385;51.096;17.190;2022-12-11T03:12:14;77.00;;;29.30;;
41705;SDS011;27385;51.096;17.190;2022-12-11T03:14:48;75.10;;;29.50;;
41705;SDS011;27385;51.096;17.190;2022-12-11T03:17:23;80.00;;;31.40;;
41705;SDS011;27385;51.096;17.190;2022-12-11T03:20:02;89.10;;;32.30;;
41705;SDS011;27385;51.096;17.190;2022-12-11T03:22:39;75.00;;;28.20;;
41705;SDS011;27385;51.096;17.190;2022-12-11T03:25:16;71.00;;;28.40;;
41705;SDS011;27385;51.096;17.190;2022-12-11T03:27:52;69.60;;;27.90;;
41705;SDS011;27385;51.096;17.190;2022-12-11T03:30:27;71.20;;;27.90;;
41705;SDS011;27385;51.096;17.190;2022-12-11T03:33:01;73.20;;;26.00;;
41705;SDS011;27385;51.096;17.190;2022-12-11T03:35:36;68.70;;;28.00;;
41705;SDS011;27385;51.096;17.190;2022-12-11T03:38:10;71.80;;;28.80;;
41705;SDS011;27385;51.096;17.190;2022-12-11T03:40:47;70.50;;;28.50;;
41705;SDS011;27385;51.096;17.190;2022-12-11T03:43:23;70.50;;;25.20;;
41705;SDS011;27385;51.096;17.190;2022-12-11T03:45:57;69.00;;;29.00;;
41705;SDS011;27385;51.096;17.190;2022-12-11T03:48:31;63.70;;;20.40;;
41705;SDS011;27385;51.096;17.190;2022-12-11T03:51:05;70.70;;;27.40;;
41705;SDS011;27385;51.096;17.190;2022-12-11T03:53:37;69.30;;;25.10;;
41705;SDS011;27385;51.096;17.190;2022-12-11T03:56:09;69.50;;;26.30;;
41705;SDS011;27385;51.096;17.190;2022-12-11T03:58:43;72.40;;;28.00;;
41705;SDS011;27385;51.096;17.190;2022-12-11T04:01:14;59.70;;;23.50;;
41705;SDS011;27385;51.096;17.190;2022-12-11T04:03:46;65.30;;;25.40;;
41705;SDS011;27385;51.096;17.190;2022-12-11T04:06:18;69.90;;;26.40;;
41705;SDS011;27385;51.096;17.190;2022-12-11T04:08:50;74.60;;;26.70;;
41705;SDS011;27385;51.096;17.190;2022-12-11T04:11:21;74.20;;;29.00;;
41705;SDS011;27385;51.096;17.190;2022-12-11T04:14:07;77.90;;;25.40;;
41705;SDS011;27385;51.096;17.190;2022-12-11T04:16:58;73.50;;;26.20;;
41705;SDS011;27385;51.096;17.190;2022-12-11T04:19:30;68.10;;;26.90;;
41705;SDS011;27385;51.096;17.190;2022-12-11T04:22:19;68.90;;;26.30;;
41705;SDS011;27385;51.096;17.190;2022-12-11T04:25:08;66.00;;;24.20;;
41705;SDS011;27385;51.096;17.190;2022-12-11T04:27:39;68.90;;;26.60;;
41705;SDS011;27385;51.096;17.190;2022-12-11T04:30:19;71.30;;;25.30;;
41705;SDS011;27385;51.096;17.190;2022-12-11T04:32:52;76.20;;;26.60;;
41705;SDS011;27385;51.096;17.190;2022-12-11T04:35:24;75.00;;;27.90;;
41705;SDS011;27385;51.096;17.190;2022-12-11T04:37:56;74.40;;;28.10;;
41705;SDS011;27385;51.096;17.190;2022-12-11T04:40:28;66.50;;;25.40;;
41705;SDS011;27385;51.096;17.190;2022-12-11T04:43:02;68.00;;;23.90;;
41705;SDS011;27385;51.096;17.190;2022-12-11T04:45:33;66.40;;;28.20;;
41705;SDS011;27385;51.096;17.190;2022-12-11T04:48:05;59.80;;;21.10;;
41705;SDS011;27385;51.096;17.190;2022-12-11T04:50:36;54.90;;;21.60;;
41705;SDS011;27385;51.096;17.190;2022-12-11T04:53:08;69.10;;;24.80;;
41705;SDS011;27385;51.096;17.190;2022-12-11T04:55:39;70.00;;;24.00;;
41705;SDS011;27385;51.096;17.190;2022-12-11T04:58:10;64.10;;;23.30;;
41705;SDS011;27385;51.096;17.190;2022-12-11T05:00:42;60.50;;;21.60;;
41705;SDS011;27385;51.096;17.190;2022-12-11T05:03:13;64.50;;;24.00;;
41705;SDS011;27385;51.096;17.190;2022-12-11T05:05:48;64.40;;;24.10;;
41705;SDS011;27385;51.096;17.190;2022-12-11T05:08:21;61.90;;;22.40;;
41705;SDS011;27385;51.096;17.190;2022-12-11T05:10:55;59.50;;;23.30;;
41705;SDS011;27385;51.096;17.190;2022-12-11T05:13:29;59.00;;;23.20;;
41705;SDS011;27385;51.096;17.190;2022-12-11T05:16:01;58.90;;;23.80;;
41705;SDS011;27385;51.096;17.190;2022-12-11T05:18:33;60.00;;;21.50;;
41705;SDS011;27385;51.096;17.190;2022-12-11T05:21:07;58.20;;;23.80;;
41705;SDS011;27385;51.096;17.190;2022-12-11T05:23:41;60.00;;;24.60;;
41705;SDS011;27385;51.096;17.190;2022-12-11T05:26:13;59.60;;;23.80;;
41705;SDS011;27385;51.096;17.190;2022-12-11T05:28:51;67.30;;;26.90;;
41705;SDS011;27385;51.096;17.190;2022-12-11T05:31:24;69.00;;;25.20;;
41705;SDS011;27385;51.096;17.190;2022-12-11T05:33:56;62.30;;;26.30;;
41705;SDS011;27385;51.096;17.190;2022-12-11T05:36:28;63.90;;;24.10;;
41705;SDS011;27385;51.096;17.190;2022-12-11T05:39:02;63.40;;;23.10;;
41705;SDS011;27385;51.096;17.190;2022-12-11T05:41:34;61.10;;;24.20;;
41705;SDS011;27385;51.096;17.190;2022-12-11T05:44:05;69.00;;;26.40;;
41705;SDS011;27385;51.096;17.190;2022-12-11T05:46:39;61.50;;;25.60;;
41705;SDS011;27385;51.096;17.190;2022-12-11T05:49:11;61.00;;;26.30;;
41705;SDS011;27385;51.096;17.190;2022-12-11T05:51:42;58.30;;;22.70;;
41705;SDS011;27385;51.096;17.190;2022-12-11T05:54:13;49.20;;;20.30;;
41705;SDS011;27385;51.096;17.190;2022-12-11T05:56:50;51.40;;;21.20;;
41705;SDS011;27385;51.096;17.190;2022-12-11T05:59:21;50.50;;;20.40;;
41705;SDS011;27385;51.096;17.190;2022-12-11T06:01:53;62.90;;;26.40;;
41705;SDS011;27385;51.096;17.190;2022-12-11T06:04:24;59.30;;;24.00;;
41705;SDS011;27385;51.096;17.190;2022-12-11T06:06:56;52.60;;;22.50;;
41705;SDS011;27385;51.096;17.190;2022-12-11T06:09:27;52.40;;;20.80;;
41705;SDS011;27385;51.096;17.190;2022-12-11T06:12:00;56.60;;;22.60;;
41705;SDS011;27385;51.096;17.190;2022-12-11T06:14:32;53.90;;;21.90;;
41705;SDS011;27385;51.096;17.190;2022-12-11T06:17:03;59.50;;;23.90;;
41705;SDS011;27385;51.096;17.190;2022-12-11T06:19:35;57.40;;;22.10;;
41705;SDS011;27385;51.096;17.190;2022-12-11T06:22:06;58.60;;;24.10;;
41705;SDS011;27385;51.096;17.190;2022-12-11T06:24:38;56.60;;;24.40;;
41705;SDS011;27385;51.096;17.190;2022-12-11T06:27:09;56.30;;;22.40;;
41705;SDS011;27385;51.096;17.190;2022-12-11T06:29:41;56.80;;;22.50;;
41705;SDS011;27385;51.096;17.190;2022-12-11T06:32:15;59.50;;;22.80;;
41705;SDS011;27385;51.096;17.190;2022-12-11T06:34:47;55.40;;;22.20;;
41705;SDS011;27385;51.096;17.190;2022-12-11T06:37:18;52.00;;;19.80;;
41705;SDS011;27385;51.096;17.190;2022-12-11T06:39:50;53.50;;;21.70;;
41705;SDS011;27385;51.096;17.190;2022-12-11T06:42:21;55.80;;;23.20;;
41705;SDS011;27385;51.096;17.190;2022-12-11T06:44:52;51.00;;;19.60;;
41705;SDS011;27385;51.096;17.190;2022-12-11T06:47:24;48.40;;;19.50;;
41705;SDS011;27385;51.096;17.190;2022-12-11T06:49:56;49.40;;;19.90;;
41705;SDS011;27385;51.096;17.190;2022-12-11T06:52:29;55.90;;;23.10;;
41705;SDS011;27385;51.096;17.190;2022-12-11T06:55:00;54.10;;;21.80;;
41705;SDS011;27385;51.096;17.190;2022-12-11T06:57:32;51.20;;;20.30;;
41705;SDS011;27385;51.096;17.190;2022-12-11T07:00:05;56.70;;;21.90;;
41705;SDS011;27385;51.096;17.190;2022-12-11T07:02:38;47.30;;;20.20;;
41705;SDS011;27385;51.096;17.190;2022-12-11T07:05:09;53.00;;;22.60;;
41705;SDS011;27385;51.096;17.190;2022-12-11T07:07:40;49.20;;;19.20;;
41705;SDS011;27385;51.096;17.190;2022-12-11T07:10:12;45.70;;;19.80;;
41705;SDS011;27385;51.096;17.190;2022-12-11T07:12:43;48.30;;;19.60;;
41705;SDS011;27385;51.096;17.190;2022-12-11T07:15:14;52.30;;;21.10;;
41705;SDS011;27385;51.096;17.190;2022-12-11T07:17:46;54.50;;;22.50;;
41705;SDS011;27385;51.096;17.190;2022-12-11T07:20:17;46.70;;;18.00;;
41705;SDS011;27385;51.096;17.190;2022-12-11T07:22:49;48.80;;;21.00;;
41705;SDS011;27385;51.096;17.190;2022-12-11T07:25:22;52.80;;;22.40;;
41705;SDS011;27385;51.096;17.190;2022-12-11T07:27:53;48.70;;;19.60;;
41705;SDS011;27385;51.096;17.190;2022-12-11T07:30:25;50.00;;;20.90;;
41705;SDS011;27385;51.096;17.190;2022-12-11T07:32:56;46.90;;;19.70;;
41705;SDS011;27385;51.096;17.190;2022-12-11T07:35:28;38.00;;;16.10;;
41705;SDS011;27385;51.096;17.190;2022-12-11T07:38:00;48.70;;;19.20;;
41705;SDS011;27385;51.096;17.190;2022-12-11T07:40:31;49.20;;;19.60;;
41705;SDS011;27385;51.096;17.190;2022-12-11T07:43:03;57.50;;;22.00;;
41705;SDS011;27385;51.096;17.190;2022-12-11T07:45:35;54.80;;;20.00;;
41705;SDS011;27385;51.096;17.190;2022-12-11T07:48:07;44.10;;;17.60;;
41705;SDS011;27385;51.096;17.190;2022-12-11T07:50:39;44.10;;;17.80;;
41705;SDS011;27385;51.096;17.190;2022-12-11T07:53:11;47.30;;;18.10;;
41705;SDS011;27385;51.096;17.190;2022-12-11T07:55:42;51.50;;;19.70;;
41705;SDS011;27385;51.096;17.190;2022-12-11T07:58:14;43.50;;;17.90;;
41705;SDS011;27385;51.096;17.190;2022-12-11T08:00:45;44.80;;;16.90;;
41705;SDS011;27385;51.096;17.190;2022-12-11T08:03:16;44.80;;;17.50;;
41705;SDS011;27385;51.096;17.190;2022-12-11T08:05:48;43.90;;;16.30;;
41705;SDS011;27385;51.096;17.190;2022-12-11T08:08:20;44.30;;;16.10;;
41705;SDS011;27385;51.096;17.190;2022-12-11T08:10:53;42.30;;;15.80;;
41705;SDS011;27385;51.096;17.190;2022-12-11T08:13:28;39.90;;;15.60;;
41705;SDS011;27385;51.096;17.190;2022-12-11T08:16:03;43.70;;;16.00;;
41705;SDS011;27385;51.096;17.190;2022-12-11T08:18:38;41.40;;;17.30;;
41705;SDS011;27385;51.096;17.190;2022-12-11T08:21:11;44.30;;;16.60;;
41705;SDS011;27385;51.096;17.190;2022-12-11T08:23:45;42.60;;;15.70;;
41705;SDS011;27385;51.096;17.190;2022-12-11T08:26:17;40.80;;;17.10;;
41705;SDS011;27385;51.096;17.190;2022-12-11T08:28:50;46.50;;;18.20;;
41705;SDS011;27385;51.096;17.190;2022-12-11T08:31:23;46.80;;;16.90;;
41705;SDS011;27385;51.096;17.190;2022-12-11T08:33:55;48.00;;;17.60;;
41705;SDS011;27385;51.096;17.190;2022-12-11T08:36:27;43.00;;;18.30;;
41705;SDS011;27385;51.096;17.190;2022-12-11T08:38:58;48.80;;;18.50;;
41705;SDS011;27385;51.096;17.190;2022-12-11T08:41:30;48.60;;;18.40;;
41705;SDS011;27385;51.096;17.190;2022-12-11T08:44:01;46.80;;;17.30;;
41705;SDS011;27385;51.096;17.190;2022-12-11T08:46:33;45.70;;;18.40;;
41705;SDS011;27385;51.096;17.190;2022-12-11T08:49:07;50.30;;;20.10;;
41705;SDS011;27385;51.096;17.190;2022-12-11T08:51:39;39.80;;;14.10;;
41705;SDS011;27385;51.096;17.190;2022-12-11T08:54:11;41.80;;;15.60;;
41705;SDS011;27385;51.096;17.190;2022-12-11T08:56:42;41.10;;;15.20;;
41705;SDS011;27385;51.096;17.190;2022-12-11T08:59:13;40.30;;;16.00;;
41705;SDS011;27385;51.096;17.190;2022-12-11T09:01:45;36.90;;;13.20;;
41705;SDS011;27385;51.096;17.190;2022-12-11T09:04:16;39.20;;;12.90;;
41705;SDS011;27385;51.096;17.190;2022-12-11T09:06:48;39.60;;;13.70;;
41705;SDS011;27385;51.096;17.190;2022-12-11T09:09:19;39.50;;;15.00;;
41705;SDS011;27385;51.096;17.190;2022-12-11T09:11:51;43.90;;;16.40;;
41705;SDS011;27385;51.096;17.190;2022-12-11T09:14:23;37.10;;;13.50;;
41705;SDS011;27385;51.096;17.190;2022-12-11T09:16:55;37.10;;;14.70;;
41705;SDS011;27385;51.096;17.190;2022-12-11T09:19:26;35.40;;;14.20;;
41705;SDS011;27385;51.096;17.190;2022-12-11T09:21:58;42.20;;;14.30;;
41705;SDS011;27385;51.096;17.190;2022-12-11T09:24:30;38.50;;;15.40;;
41705;SDS011;27385;51.096;17.190;2022-12-11T09:27:01;42.20;;;16.30;;
41705;SDS011;27385;51.096;17.190;2022-12-11T09:29:33;62.60;;;21.50;;
41705;SDS011;27385;51.096;17.190;2022-12-11T09:32:05;43.40;;;17.20;;
41705;SDS011;27385;51.096;17.190;2022-12-11T09:34:36;50.10;;;18.10;;
41705;SDS011;27385;51.096;17.190;2022-12-11T09:37:09;39.30;;;12.50;;
41705;SDS011;27385;51.096;17.190;2022-12-11T09:39:40;40.60;;;15.20;;
41705;SDS011;27385;51.096;17.190;2022-12-11T09:42:13;42.40;;;13.90;;
41705;SDS011;27385;51.096;17.190;2022-12-11T09:44:49;37.90;;;13.50;;
41705;SDS011;27385;51.096;17.190;2022-12-11T09:47:24;35.40;;;14.50;;
41705;SDS011;27385;51.096;17.190;2022-12-11T09:50:03;39.10;;;14.40;;
41705;SDS011;27385;51.096;17.190;2022-12-11T09:52:49;32.10;;;12.80;;
41705;SDS011;27385;51.096;17.190;2022-12-11T09:55:31;33.60;;;12.90;;
41705;SDS011;27385;51.096;17.190;2022-12-11T09:58:15;42.60;;;14.40;;
41705;SDS011;27385;51.096;17.190;2022-12-11T10:00:58;38.60;;;15.10;;
41705;SDS011;27385;51.096;17.190;2022-12-11T10:06:30;37.40;;;14.60;;
41705;SDS011;27385;51.096;17.190;2022-12-11T10:09:09;34.90;;;11.90;;
41705;SDS011;27385;51.096;17.190;2022-12-11T10:11:54;39.20;;;14.20;;
41705;SDS011;27385;51.096;17.190;2022-12-11T10:14:40;39.30;;;14.00;;
41705;SDS011;27385;51.096;17.190;2022-12-11T10:17:26;43.40;;;17.80;;
41705;SDS011;27385;51.096;17.190;2022-12-11T10:20:02;44.90;;;17.00;;
41705;SDS011;27385;51.096;17.190;2022-12-11T10:22:44;60.80;;;24.40;;
41705;SDS011;27385;51.096;17.190;2022-12-11T10:25:18;46.50;;;17.50;;
41705;SDS011;27385;51.096;17.190;2022-12-11T10:27:53;47.00;;;17.80;;
41705;SDS011;27385;51.096;17.190;2022-12-11T10:30:25;41.80;;;16.60;;
41705;SDS011;27385;51.096;17.190;2022-12-11T10:33:05;40.80;;;14.70;;
41705;SDS011;27385;51.096;17.190;2022-12-11T10:35:47;41.10;;;16.80;;
41705;SDS011;27385;51.096;17.190;2022-12-11T10:38:23;35.20;;;12.80;;
41705;SDS011;27385;51.096;17.190;2022-12-11T10:40:57;38.70;;;14.40;;
41705;SDS011;27385;51.096;17.190;2022-12-11T10:43:34;34.70;;;13.70;;
41705;SDS011;27385;51.096;17.190;2022-12-11T10:46:13;32.60;;;13.30;;
41705;SDS011;27385;51.096;17.190;2022-12-11T10:48:46;37.40;;;13.40;;
41705;SDS011;27385;51.096;17.190;2022-12-11T10:51:20;58.30;;;24.20;;
41705;SDS011;27385;51.096;17.190;2022-12-11T10:53:55;45.90;;;21.10;;
41705;SDS011;27385;51.096;17.190;2022-12-11T10:56:34;38.10;;;15.90;;
41705;SDS011;27385;51.096;17.190;2022-12-11T10:59:12;36.40;;;14.20;;
41705;SDS011;27385;51.096;17.190;2022-12-11T11:01:49;32.40;;;13.00;;
41705;SDS011;27385;51.096;17.190;2022-12-11T11:04:22;30.60;;;11.80;;
41705;SDS011;27385;51.096;17.190;2022-12-11T11:07:07;29.60;;;10.90;;
41705;SDS011;27385;51.096;17.190;2022-12-11T11:09:42;28.90;;;11.40;;
41705;SDS011;27385;51.096;17.190;2022-12-11T11:12:18;29.80;;;11.60;;
41705;SDS011;27385;51.096;17.190;2022-12-11T11:15:00;29.00;;;10.30;;
41705;SDS011;27385;51.096;17.190;2022-12-11T11:17:39;33.00;;;13.00;;
41705;SDS011;27385;51.096;17.190;2022-12-11T11:20:15;27.50;;;11.90;;
41705;SDS011;27385;51.096;17.190;2022-12-11T11:22:50;29.30;;;10.60;;
41705;SDS011;27385;51.096;17.190;2022-12-11T11:25:24;28.70;;;10.90;;
41705;SDS011;27385;51.096;17.190;2022-12-11T11:27:57;27.40;;;10.80;;
41705;SDS011;27385;51.096;17.190;2022-12-11T11:30:32;29.50;;;10.60;;
41705;SDS011;27385;51.096;17.190;2022-12-11T11:33:10;32.40;;;12.40;;
41705;SDS011;27385;51.096;17.190;2022-12-11T11:35:52;27.40;;;11.20;;
41705;SDS011;27385;51.096;17.190;2022-12-11T11:38:25;33.20;;;13.00;;
41705;SDS011;27385;51.096;17.190;2022-12-11T11:41:04;30.80;;;11.90;;
41705;SDS011;27385;51.096;17.190;2022-12-11T11:43:44;29.30;;;9.90;;
41705;SDS011;27385;51.096;17.190;2022-12-11T11:46:18;30.00;;;13.20;;
41705;SDS011;27385;51.096;17.190;2022-12-11T11:48:55;30.20;;;12.30;;
41705;SDS011;27385;51.096;17.190;2022-12-11T11:51:33;29.50;;;11.10;;
41705;SDS011;27385;51.096;17.190;2022-12-11T11:54:12;27.80;;;10.30;;
41705;SDS011;27385;51.096;17.190;2022-12-11T11:56:53;33.10;;;11.90;;
41705;SDS011;27385;51.096;17.190;2022-12-11T11:59:29;28.80;;;11.60;;
41705;SDS011;27385;51.096;17.190;2022-12-11T12:02:08;31.40;;;10.90;;
41705;SDS011;27385;51.096;17.190;2022-12-11T12:04:45;33.20;;;11.90;;
41705;SDS011;27385;51.096;17.190;2022-12-11T12:07:23;34.60;;;12.50;;
41705;SDS011;27385;51.096;17.190;2022-12-11T12:10:09;32.00;;;12.70;;
41705;SDS011;27385;51.096;17.190;2022-12-11T12:12:51;30.60;;;11.40;;
41705;SDS011;27385;51.096;17.190;2022-12-11T12:15:32;38.00;;;13.80;;
41705;SDS011;27385;51.096;17.190;2022-12-11T12:18:14;35.40;;;13.50;;
41705;SDS011;27385;51.096;17.190;2022-12-11T12:20:58;33.70;;;13.30;;
41705;SDS011;27385;51.096;17.190;2022-12-11T12:23:40;33.00;;;13.00;;
41705;SDS011;27385;51.096;17.190;2022-12-11T12:26:22;32.00;;;12.10;;
41705;SDS011;27385;51.096;17.190;2022-12-11T12:29:00;27.80;;;10.70;;
41705;SDS011;27385;51.096;17.190;2022-12-11T12:31:47;26.40;;;10.00;;
41705;SDS011;27385;51.096;17.190;2022-12-11T12:37:26;29.80;;;11.20;;
41705;SDS011;27385;51.096;17.190;2022-12-11T12:40:16;32.70;;;11.70;;
41705;SDS011;27385;51.096;17.190;2022-12-11T12:42:59;27.00;;;8.70;;
41705;SDS011;27385;51.096;17.190;2022-12-11T12:45:45;35.70;;;11.90;;
41705;SDS011;27385;51.096;17.190;2022-12-11T12:48:27;30.10;;;12.10;;
41705;SDS011;27385;51.096;17.190;2022-12-11T12:50:59;31.40;;;12.30;;
41705;SDS011;27385;51.096;17.190;2022-12-11T12:53:32;45.80;;;15.10;;
41705;SDS011;27385;51.096;17.190;2022-12-11T12:56:06;57.80;;;21.00;;
41705;SDS011;27385;51.096;17.190;2022-12-11T12:58:41;63.50;;;24.40;;
41705;SDS011;27385;51.096;17.190;2022-12-11T13:01:16;47.30;;;18.90;;
41705;SDS011;27385;51.096;17.190;2022-12-11T13:03:50;35.10;;;14.90;;
41705;SDS011;27385;51.096;17.190;2022-12-11T13:06:32;29.60;;;11.50;;
41705;SDS011;27385;51.096;17.190;2022-12-11T13:09:11;31.90;;;10.70;;
41705;SDS011;27385;51.096;17.190;2022-12-11T13:14:24;26.90;;;8.80;;
41705;SDS011;27385;51.096;17.190;2022-12-11T13:17:06;28.00;;;9.60;;
41705;SDS011;27385;51.096;17.190;2022-12-11T13:20:05;25.30;;;9.50;;
41705;SDS011;27385;51.096;17.190;2022-12-11T13:22:51;22.80;;;8.00;;
41705;SDS011;27385;51.096;17.190;2022-12-11T13:25:29;23.50;;;8.20;;
41705;SDS011;27385;51.096;17.190;2022-12-11T13:28:20;24.20;;;7.70;;
41705;SDS011;27385;51.096;17.190;2022-12-11T13:31:06;21.10;;;7.90;;
41705;SDS011;27385;51.096;17.190;2022-12-11T13:33:57;26.00;;;8.40;;
41705;SDS011;27385;51.096;17.190;2022-12-11T13:36:47;22.30;;;7.50;;
41705;SDS011;27385;51.096;17.190;2022-12-11T13:39:21;20.70;;;7.30;;
41705;SDS011;27385;51.096;17.190;2022-12-11T13:41:55;23.60;;;9.10;;
41705;SDS011;27385;51.096;17.190;2022-12-11T13:44:30;32.40;;;12.10;;
41705;SDS011;27385;51.096;17.190;2022-12-11T13:47:09;27.70;;;11.30;;
41705;SDS011;27385;51.096;17.190;2022-12-11T13:49:45;22.80;;;9.10;;
41705;SDS011;27385;51.096;17.190;2022-12-11T13:52:27;24.60;;;9.60;;
41705;SDS011;27385;51.096;17.190;2022-12-11T13:55:12;25.50;;;9.10;;
41705;SDS011;27385;51.096;17.190;2022-12-11T13:57:50;27.80;;;9.20;;
41705;SDS011;27385;51.096;17.190;2022-12-11T14:00:22;24.60;;;9.80;;
41705;SDS011;27385;51.096;17.190;2022-12-11T14:02:57;36.60;;;12.90;;
41705;SDS011;27385;51.096;17.190;2022-12-11T14:05:35;26.70;;;9.10;;
41705;SDS011;27385;51.096;17.190;2022-12-11T14:08:06;26.40;;;9.90;;
41705;SDS011;27385;51.096;17.190;2022-12-11T14:10:39;24.40;;;7.40;;
41705;SDS011;27385;51.096;17.190;2022-12-11T14:13:13;27.00;;;10.10;;
41705;SDS011;27385;51.096;17.190;2022-12-11T14:15:50;27.40;;;9.40;;
41705;SDS011;27385;51.096;17.190;2022-12-11T14:18:23;34.10;;;11.60;;
41705;SDS011;27385;51.096;17.190;2022-12-11T14:20:57;43.30;;;17.20;;
41705;SDS011;27385;51.096;17.190;2022-12-11T14:23:32;38.80;;;14.10;;
41705;SDS011;27385;51.096;17.190;2022-12-11T14:26:14;40.80;;;15.50;;
41705;SDS011;27385;51.096;17.190;2022-12-11T14:28:50;35.60;;;13.50;;
41705;SDS011;27385;51.096;17.190;2022-12-11T14:31:24;29.00;;;12.60;;
41705;SDS011;27385;51.096;17.190;2022-12-11T14:34:01;25.50;;;8.70;;
41705;SDS011;27385;51.096;17.190;2022-12-11T14:36:35;23.80;;;8.50;;
41705;SDS011;27385;51.096;17.190;2022-12-11T14:39:12;21.10;;;7.50;;
41705;SDS011;27385;51.096;17.190;2022-12-11T14:41:48;24.90;;;8.20;;
41705;SDS011;27385;51.096;17.190;2022-12-11T14:44:27;19.40;;;6.70;;
41705;SDS011;27385;51.096;17.190;2022-12-11T14:47:04;22.70;;;7.40;;
41705;SDS011;27385;51.096;17.190;2022-12-11T14:49:44;19.20;;;6.80;;
41705;SDS011;27385;51.096;17.190;2022-12-11T14:52:22;23.50;;;7.00;;
41705;SDS011;27385;51.096;17.190;2022-12-11T14:54:59;23.50;;;8.60;;
41705;SDS011;27385;51.096;17.190;2022-12-11T14:57:34;26.70;;;9.30;;
41705;SDS011;27385;51.096;17.190;2022-12-11T15:00:19;22.50;;;6.60;;
41705;SDS011;27385;51.096;17.190;2022-12-11T15:03:00;19.40;;;6.50;;
41705;SDS011;27385;51.096;17.190;2022-12-11T15:05:33;19.50;;;6.40;;
41705;SDS011;27385;51.096;17.190;2022-12-11T15:08:16;20.90;;;6.20;;